Time;durP1;ratioP1;P1;durP2;ratioP2;P2;SDS_P1;SDS_P2;PMS_P1;PMS_P2;Temp;Humidity;BMP_temperature;BMP_pressure;BME280_temperature;BME280_humidity;BME280_pressure;Samples;Min_cycle;Max_cycle;Signal;HPM_P1;HPM_P2
2023/01/11 00:00:58;;;;;;;9.18;5.80;;;;;;;0.66;97.39;99262.97;5078193;28;20132;-95
2023/01/11 00:03:24;;;;;;;9.98;6.25;;;;;;;0.88;97.50;99292.19;5084241;28;20454;-94
2023/01/11 00:05:54;;;;;;;12.02;6.25;;;;;;;0.87;98.04;99286.06;5082532;28;20165;-93
2023/01/11 00:08:26;;;;;;;8.70;5.57;;;;;;;0.80;95.22;99255.38;5078204;28;20059;-93
2023/01/11 00:10:52;;;;;;;11.57;6.93;;;;;;;0.86;95.06;99247.63;5083520;28;20044;-93
2023/01/11 00:13:18;;;;;;;8.05;5.50;;;;;;;0.99;90.44;99254.88;5077469;28;20049;-94
2023/01/11 00:15:44;;;;;;;8.05;6.00;;;;;;;1.30;86.61;99267.66;5079002;28;20378;-93
2023/01/11 00:18:10;;;;;;;8.27;5.80;;;;;;;1.21;85.79;99252.66;5077731;28;20041;-94
2023/01/11 00:20:38;;;;;;;9.18;5.40;;;;;;;1.42;85.91;99267.88;5080920;28;20039;-94
2023/01/11 00:23:04;;;;;;;10.68;6.75;;;;;;;1.46;86.51;99274.06;5077699;28;20432;-94
2023/01/11 00:25:31;;;;;;;8.20;5.85;;;;;;;1.45;85.40;99278.41;5077402;28;20043;-95
2023/01/11 00:27:57;;;;;;;8.45;5.30;;;;;;;1.48;85.47;99286.34;5077478;28;20062;-94
2023/01/11 00:30:23;;;;;;;7.95;5.30;;;;;;;1.28;85.83;99256.25;5076190;28;20149;-94
2023/01/11 00:32:49;;;;;;;8.38;5.63;;;;;;;1.46;85.73;99293.28;5075989;28;20044;-93
2023/01/11 00:35:15;;;;;;;8.85;5.88;;;;;;;1.11;88.95;99261.22;5077145;28;20036;-94
2023/01/11 00:37:41;;;;;;;9.48;6.18;;;;;;;1.14;90.83;99292.69;5077473;28;20070;-91
2023/01/11 00:40:08;;;;;;;11.65;6.35;;;;;;;0.95;91.94;99280.97;5076847;28;20055;-94
2023/01/11 00:51:03;;;;;;;8.50;5.07;;;;;;;0.63;96.51;99302.16;5016098;28;20411;-94
2023/01/11 00:53:28;;;;;;;6.60;4.20;;;;;;;0.60;96.99;99297.72;4997505;28;20038;-93
2023/01/11 00:55:55;;;;;;;7.00;4.20;;;;;;;0.65;94.85;99294.31;5000497;28;20034;-94
2023/01/11 00:58:21;;;;;;;8.73;4.57;;;;;;;0.54;94.97;99273.16;4996814;28;20554;-92
2023/01/11 01:00:48;;;;;;;8.13;5.18;;;;;;;0.59;95.10;99279.41;5000273;28;20054;-93
2023/01/11 01:03:15;;;;;;;8.90;5.68;;;;;;;0.65;95.71;99302.16;4997226;28;20030;-93
2023/01/11 01:05:41;;;;;;;17.75;9.00;;;;;;;0.48;97.32;99283.50;4996998;28;20046;-93
2023/01/11 01:08:07;;;;;;;12.68;7.90;;;;;;;0.37;97.45;99270.22;4997941;28;20046;-92
2023/01/11 01:10:33;;;;;;;13.32;7.20;;;;;;;0.42;99.24;99307.81;4999951;28;20385;-92
2023/01/11 01:16:00;;;;;;;7.35;5.30;;;;;;;0.47;97.53;99313.13;5106927;27;20375;-93
2023/01/11 01:18:29;;;;;;;8.20;5.63;;;;;;;0.55;97.82;99317.69;5061457;28;20108;-94
2023/01/11 01:20:55;;;;;;;10.32;5.22;;;;;;;0.36;98.14;99295.47;5062955;28;20071;-93
2023/01/11 01:23:21;;;;;;;9.13;5.45;;;;;;;0.28;99.04;99286.56;5056613;28;20033;-92
2023/01/11 01:25:47;;;;;;;10.75;6.43;;;;;;;0.34;99.04;99297.16;5064289;28;20055;-94
2023/01/11 01:28:13;;;;;;;10.35;6.38;;;;;;;0.44;100.00;99328.78;5059144;28;20068;-94
2023/01/11 01:30:40;;;;;;;9.52;6.43;;;;;;;0.28;100.00;99306.59;5052906;28;20029;-93
2023/01/11 01:33:07;;;;;;;8.80;6.40;;;;;;;0.11;100.00;99280.97;5058751;28;20041;-93
2023/01/11 01:35:36;;;;;;;10.13;5.72;;;;;;;0.35;100.00;99304.19;5054289;28;20487;-93
2023/01/11 01:38:02;;;;;;;10.13;6.60;;;;;;;0.32;100.00;99295.38;5060792;28;20049;-94
2023/01/11 01:40:27;;;;;;;9.07;6.30;;;;;;;0.32;100.00;99292.75;5063100;28;20094;-95
2023/01/11 01:42:53;;;;;;;8.73;5.90;;;;;;;0.35;100.00;99301.56;5067107;28;20045;-93
2023/01/11 01:45:23;;;;;;;11.23;7.05;;;;;;;0.33;100.00;99310.22;5052782;28;20030;-93
2023/01/11 01:47:52;;;;;;;9.65;6.63;;;;;;;0.58;100.00;99343.03;5065610;28;20036;-92
2023/01/11 01:50:23;;;;;;;10.95;6.78;;;;;;;0.45;100.00;99336.63;5054770;28;20426;-93
2023/01/11 01:52:52;;;;;;;8.75;5.97;;;;;;;0.32;100.00;99322.41;5062093;28;20033;-92
2023/01/11 01:55:24;;;;;;;10.07;6.72;;;;;;;0.34;100.00;99325.06;5056469;28;20080;-92
2023/01/11 01:57:51;;;;;;;10.02;5.97;;;;;;;0.35;100.00;99335.56;5052871;28;20053;-94
2023/01/11 02:00:17;;;;;;;10.05;6.20;;;;;;;0.26;100.00;99326.59;5053744;28;20034;-93
2023/01/11 02:02:44;;;;;;;9.88;6.10;;;;;;;0.26;100.00;99332.75;5060545;28;20495;-93
2023/01/11 02:05:13;;;;;;;9.07;5.82;;;;;;;0.22;100.00;99317.84;5055729;28;20037;-92
2023/01/11 02:07:42;;;;;;;8.93;6.00;;;;;;;0.30;100.00;99333.69;5060941;28;20044;-92
2023/01/11 02:10:11;;;;;;;7.28;4.93;;;;;;;0.09;100.00;99311.44;5055337;28;20042;-93
2023/01/11 02:12:42;;;;;;;10.77;5.80;;;;;;;0.11;100.00;99314.97;5075007;28;20086;-93
2023/01/11 02:15:09;;;;;;;12.93;7.28;;;;;;;0.22;100.00;99341.38;5061304;28;20036;-94
2023/01/11 02:17:35;;;;;;;13.23;7.82;;;;;;;0.10;100.00;99323.63;5059684;28;20048;-94
2023/01/11 02:20:11;;;;;;;14.63;8.48;;;;;;;0.01;100.00;99315.59;5064023;28;20063;-94
2023/01/11 02:22:59;;;;;;;9.65;6.55;;;;;;;-0.03;100.00;99312.00;5072203;28;20075;-93
2023/01/11 02:26:01;;;;;;;9.73;6.38;;;;;;;-0.06;100.00;99316.28;5052270;28;20044;-94
2023/01/11 02:28:33;;;;;;;9.75;6.05;;;;;;;-0.03;100.00;99330.31;5044595;28;20033;-93
2023/01/11 02:31:09;;;;;;;10.77;6.80;;;;;;;-0.09;100.00;99337.13;5042446;28;20041;-94
2023/01/11 02:33:42;;;;;;;11.85;6.93;;;;;;;-0.27;100.00;99314.03;5054322;28;20037;-92
2023/01/11 02:36:17;;;;;;;10.95;6.90;;;;;;;-0.07;100.00;99330.19;5046089;28;20046;-93
2023/01/11 02:38:50;;;;;;;11.15;7.22;;;;;;;-0.15;100.00;99316.97;5057413;28;20048;-93
2023/01/11 02:41:21;;;;;;;10.38;7.25;;;;;;;-0.35;100.00;99285.06;5019585;28;20034;-92
2023/01/11 02:47:05;;;;;;;12.25;7.80;;;;;;;-0.17;100.00;99338.66;5094466;27;20363;-93
2023/01/11 02:49:38;;;;;;;11.40;7.07;;;;;;;-0.24;100.00;99335.00;5093694;28;20044;-94
2023/01/11 02:52:09;;;;;;;10.70;7.03;;;;;;;-0.29;100.00;99329.66;5093421;28;20501;-93
2023/01/11 02:54:38;;;;;;;12.73;7.78;;;;;;;-0.47;100.00;99293.50;5093199;28;20397;-92
2023/01/11 02:57:05;;;;;;;13.18;8.13;;;;;;;-0.30;100.00;99304.38;5094376;28;20685;-93
2023/01/11 02:59:34;;;;;;;13.98;7.43;;;;;;;-0.43;100.00;99278.81;5097904;28;20111;-93
2023/01/11 03:02:01;;;;;;;11.52;6.93;;;;;;;-0.39;100.00;99284.97;5092947;28;20056;-93
2023/01/11 03:04:29;;;;;;;12.07;7.35;;;;;;;-0.48;100.00;99276.09;5093300;28;20055;-94
2023/01/11 03:07:10;;;;;;;12.13;6.93;;;;;;;-0.21;100.00;99327.25;5092336;28;20046;-95
2023/01/11 03:09:45;;;;;;;12.32;6.72;;;;;;;-0.39;100.00;99312.00;5092765;28;20047;-94
2023/01/11 03:15:52;;;;;;;9.25;6.18;;;;;;;-0.40;100.00;99331.13;5107337;27;20447;-93
2023/01/11 03:18:38;;;;;;;9.68;6.45;;;;;;;-0.59;100.00;99315.81;5053725;28;20053;-92
2023/01/11 03:21:20;;;;;;;8.82;6.05;;;;;;;-0.67;100.00;99303.44;5069907;28;20041;-91
2023/01/11 03:23:59;;;;;;;10.88;6.82;;;;;;;-0.71;100.00;99303.34;5056572;28;20061;-93
2023/01/11 03:26:33;;;;;;;11.32;6.53;;;;;;;-0.80;100.00;99296.13;5053327;28;20506;-92
2023/01/11 03:29:07;;;;;;;9.15;6.15;;;;;;;-0.66;100.00;99318.25;5052166;28;20124;-93
2023/01/11 03:31:37;;;;;;;12.73;6.93;;;;;;;-0.74;100.00;99306.72;5053879;28;20045;-93
2023/01/11 03:34:14;;;;;;;10.90;6.72;;;;;;;-0.77;100.00;99309.25;5057735;28;20037;-93
2023/01/11 03:36:48;;;;;;;11.05;6.90;;;;;;;-0.73;100.00;99302.41;5053289;28;20037;-92
2023/01/11 03:39:19;;;;;;;10.73;7.30;;;;;;;-0.75;100.00;99311.94;5054027;28;20634;-93
2023/01/11 03:41:51;;;;;;;11.95;7.32;;;;;;;-0.84;100.00;99304.72;5060287;28;20041;-93
2023/01/11 03:44:20;;;;;;;12.02;6.82;;;;;;;-0.90;100.00;99313.25;5052767;28;20041;-93
2023/01/11 03:46:52;;;;;;;10.27;6.82;;;;;;;-0.92;100.00;99314.94;5059899;28;20048;-92
2023/01/11 03:49:25;;;;;;;10.90;6.60;;;;;;;-1.13;100.00;99278.72;5052992;28;20061;-91
2023/01/11 03:51:55;;;;;;;10.65;6.88;;;;;;;-1.00;100.00;99306.00;5055013;28;20399;-92
2023/01/11 03:54:23;;;;;;;11.77;7.03;;;;;;;-1.13;100.00;99283.03;5052563;28;20045;-94
2023/01/11 03:56:58;;;;;;;10.82;7.30;;;;;;;-1.23;100.00;99275.81;5052890;28;20104;-92
2023/01/11 03:59:24;;;;;;;10.43;6.72;;;;;;;-1.01;100.00;99306.88;5052761;28;20395;-93
2023/01/11 04:01:54;;;;;;;12.77;6.88;;;;;;;-1.15;100.00;99293.44;5064733;28;20517;-92
2023/01/11 04:04:20;;;;;;;9.90;6.68;;;;;;;-1.15;100.00;99308.19;5051320;28;20410;-92
2023/01/11 04:06:46;;;;;;;10.57;6.30;;;;;;;-1.11;100.00;99320.50;5052969;28;20049;-92
2023/01/11 04:09:11;;;;;;;9.38;5.82;;;;;;;-1.09;100.00;99319.69;5068139;28;20132;-93
2023/01/11 04:11:37;;;;;;;9.43;6.03;;;;;;;-1.25;100.00;99281.84;5063797;28;20038;-93
2023/01/11 04:14:03;;;;;;;11.88;6.18;;;;;;;-1.35;100.00;99264.16;5052048;28;20494;-93
2023/01/11 04:16:29;;;;;;;10.65;6.63;;;;;;;-1.04;100.00;99309.41;5061678;28;20049;-92
2023/01/11 04:18:56;;;;;;;9.75;5.85;;;;;;;-1.03;100.00;99311.16;5056668;28;20498;-94
2023/01/11 04:21:22;;;;;;;7.07;5.07;;;;;;;-1.21;100.00;99266.28;5052816;28;20041;-93
2023/01/11 04:23:48;;;;;;;7.63;5.35;;;;;;;-1.17;100.00;99283.78;5052462;28;20550;-94
2023/01/11 04:26:16;;;;;;;7.22;5.32;;;;;;;-1.15;100.00;99300.38;5041429;28;20542;-93
2023/01/11 04:28:42;;;;;;;9.15;5.85;;;;;;;-1.21;100.00;99288.06;5039052;28;20068;-92
2023/01/11 04:31:08;;;;;;;9.10;5.97;;;;;;;-1.21;100.00;99285.44;5040859;28;20037;-92
2023/01/11 04:33:34;;;;;;;8.73;6.30;;;;;;;-1.15;100.00;99298.66;5039533;28;20414;-91
2023/01/11 04:36:05;;;;;;;11.57;6.50;;;;;;;-0.99;100.00;99330.41;5039557;28;20050;-94
2023/01/11 04:38:31;;;;;;;11.48;6.75;;;;;;;-1.02;100.00;99323.34;5039586;28;20064;-92
2023/01/11 04:42:17;;;;;;;11.05;6.70;;;;;;;-1.01;100.00;99326.88;5037997;28;20041;-92
2023/01/11 04:43:43;;;;;;;11.27;6.10;;;;;;;-0.98;100.00;99333.06;5025754;28;20041;-92
2023/01/11 04:46:09;;;;;;;12.20;6.10;;;;;;;-1.09;100.00;99321.44;5038036;28;20399;-92
2023/01/11 04:48:35;;;;;;;7.25;4.93;;;;;;;-1.13;100.00;99324.78;5038793;28;20054;-92
2023/01/11 04:51:01;;;;;;;7.40;4.72;;;;;;;-1.16;100.00;99322.97;5041856;28;20048;-93
2023/01/11 04:53:28;;;;;;;7.68;4.47;;;;;;;-1.20;100.00;99313.28;5039615;28;20041;-92
2023/01/11 04:55:59;;;;;;;7.20;4.45;;;;;;;-1.30;100.00;99299.13;5039071;28;20462;-92
2023/01/11 04:58:24;;;;;;;7.68;4.47;;;;;;;-1.13;100.00;99327.41;5055618;28;20065;-92
2023/01/11 05:00:50;;;;;;;7.28;4.35;;;;;;;-1.14;100.00;99312.59;5038099;28;20045;-94
2023/01/11 05:03:16;;;;;;;8.45;4.90;;;;;;;-1.10;100.00;99320.56;5055585;28;20049;-92
2023/01/11 05:05:42;;;;;;;7.95;4.38;;;;;;;-1.11;100.00;99318.75;5047597;28;20503;-92
2023/01/11 05:08:08;;;;;;;7.43;4.32;;;;;;;-1.21;100.00;99310.63;5055397;28;20041;-92
2023/01/11 05:10:35;;;;;;;8.80;5.03;;;;;;;-1.29;100.00;99307.81;5039799;28;20095;-92
2023/01/11 05:13:01;;;;;;;9.07;5.88;;;;;;;-1.19;100.00;99324.59;5040063;28;20030;-94
2023/01/11 05:15:27;;;;;;;7.47;5.70;;;;;;;-1.33;100.00;99298.13;5040716;28;20049;-93
2023/01/11 05:17:52;;;;;;;9.40;6.10;;;;;;;-1.08;100.00;99324.09;5039498;28;20033;-92
2023/01/11 05:20:18;;;;;;;9.23;5.78;;;;;;;-1.11;100.00;99321.38;5044973;28;20041;-93
2023/01/11 05:22:44;;;;;;;8.48;5.68;;;;;;;-1.29;100.00;99302.59;5043784;28;20514;-92
2023/01/11 05:25:10;;;;;;;9.32;5.93;;;;;;;-1.20;100.00;99313.28;5053317;28;20041;-93
2023/01/11 05:27:37;;;;;;;10.00;6.30;;;;;;;-1.28;100.00;99302.66;5050004;28;20048;-92
2023/01/11 05:30:04;;;;;;;9.45;5.53;;;;;;;-1.11;100.00;99325.72;5038798;28;20069;-92
2023/01/11 05:32:30;;;;;;;9.43;5.50;;;;;;;-1.28;100.00;99302.66;5037461;28;20492;-94
2023/01/11 05:34:56;;;;;;;8.52;5.38;;;;;;;-1.19;100.00;99335.97;5037360;28;20145;-92
2023/01/11 05:37:22;;;;;;;7.85;5.03;;;;;;;-1.23;100.00;99328.00;5036152;28;20033;-92
2023/01/11 05:39:48;;;;;;;8.02;5.93;;;;;;;-1.39;100.00;99311.00;5037095;28;20049;-91
2023/01/11 05:42:15;;;;;;;9.65;6.20;;;;;;;-1.18;100.00;99331.63;5038569;28;20038;-91
2023/01/11 05:48:00;;;;;;;8.65;6.20;;;;;;;-1.31;100.00;99315.59;5134714;27;20367;-92
2023/01/11 05:50:26;;;;;;;10.20;6.47;;;;;;;-1.45;100.00;99302.16;5133929;28;20043;-93
2023/01/11 05:52:52;;;;;;;9.30;6.20;;;;;;;-1.54;100.00;99282.72;5135810;27;20066;-92
2023/01/11 05:55:18;;;;;;;8.48;6.13;;;;;;;-1.57;100.00;99288.75;5134698;28;20035;-94
2023/01/11 05:57:57;;;;;;;9.98;5.90;;;;;;;-1.59;100.00;99277.38;5142215;28;20103;-94
2023/01/11 06:00:40;;;;;;;7.20;5.35;;;;;;;-1.46;100.00;99308.19;5145700;27;20039;-91
2023/01/11 06:03:12;;;;;;;9.40;6.03;;;;;;;-1.69;100.00;99267.53;5151569;27;20493;-94
2023/01/11 06:05:38;;;;;;;9.50;5.82;;;;;;;-1.52;100.00;99308.03;5146316;27;20039;-93
2023/01/11 06:08:04;;;;;;;12.15;6.05;;;;;;;-1.50;100.00;99302.84;5136020;27;20088;-94
2023/01/11 06:10:30;;;;;;;8.45;6.00;;;;;;;-1.61;100.00;99268.63;5140831;27;20042;-92
2023/01/11 06:13:25;;;;;;;9.05;6.30;;;;;;;-1.55;100.00;99280.97;5134356;28;20059;-92
2023/01/11 06:15:42;;;;;;;10.38;6.05;;;;;;;-1.50;100.00;99285.47;5115821;27;20125;-93
2023/01/11 06:18:09;;;;;;;9.55;6.00;;;;;;;-1.38;100.00;99298.00;5139064;27;20047;-94
2023/01/11 06:20:35;;;;;;;9.52;5.78;;;;;;;-1.51;100.00;99273.28;5146436;27;20469;-92
2023/01/11 06:23:01;;;;;;;10.68;5.90;;;;;;;-1.64;100.00;99257.25;5144664;27;20094;-93
2023/01/11 06:25:29;;;;;;;9.48;6.25;;;;;;;-1.46;100.00;99300.38;5142899;27;20037;-94
2023/01/11 06:27:55;;;;;;;10.02;6.80;;;;;;;-1.47;100.00;99292.53;5138833;27;20047;-94
2023/01/11 06:30:24;;;;;;;13.55;8.20;;;;;;;-1.63;100.00;99262.47;5133512;27;20979;-94
2023/01/11 06:32:50;;;;;;;12.45;7.68;;;;;;;-1.67;100.00;99255.41;5133505;28;20074;-91
2023/01/11 06:35:18;;;;;;;11.05;6.05;;;;;;;-1.23;100.00;99299.28;5141426;27;20407;-94
2023/01/11 06:37:43;;;;;;;10.95;6.32;;;;;;;-1.12;100.00;99295.25;5137656;27;20134;-93
2023/01/11 06:40:10;;;;;;;9.18;5.43;;;;;;;-1.14;100.00;99276.94;5133599;27;20051;-92
2023/01/11 06:42:37;;;;;;;11.00;6.18;;;;;;;-1.04;100.00;99284.19;5138600;27;20441;-93
2023/01/11 06:45:03;;;;;;;13.25;7.68;;;;;;;-1.15;100.00;99277.78;5139547;27;20564;-92
2023/01/11 06:47:29;;;;;;;13.07;8.32;;;;;;;-1.08;100.00;99308.44;5135498;27;20134;-94
2023/01/11 06:49:55;;;;;;;11.27;6.80;;;;;;;-1.02;100.00;99312.91;5136767;27;20568;-92
2023/01/11 06:52:23;;;;;;;12.02;7.35;;;;;;;-1.10;100.00;99286.63;5134878;27;20089;-93
2023/01/11 06:54:49;;;;;;;12.80;7.18;;;;;;;-0.97;100.00;99294.81;5133033;27;20062;-93
2023/01/11 06:57:14;;;;;;;9.30;6.55;;;;;;;-0.93;100.00;99307.97;5138234;27;20596;-93
2023/01/11 06:59:42;;;;;;;12.60;6.93;;;;;;;-0.97;100.00;99284.34;5121794;28;20087;-95
2023/01/11 07:02:09;;;;;;;11.48;7.40;;;;;;;-0.98;100.00;99287.78;5123360;27;20042;-95
2023/01/11 07:04:35;;;;;;;18.05;11.02;;;;;;;-0.86;100.00;99311.63;5123197;28;20596;-94
2023/01/11 07:07:01;;;;;;;17.75;10.68;;;;;;;-0.96;100.00;99302.66;5119653;28;20078;-95
2023/01/11 07:09:28;;;;;;;18.58;10.73;;;;;;;-0.91;100.00;99313.22;5124439;28;20036;-93
2023/01/11 07:11:54;;;;;;;14.68;10.02;;;;;;;-0.90;100.00;99318.50;5122168;28;20043;-94
2023/01/11 07:14:20;;;;;;;13.25;9.20;;;;;;;-0.67;100.00;99340.00;5119802;28;20040;-93
2023/01/11 07:16:46;;;;;;;14.95;9.60;;;;;;;-0.80;100.00;99313.50;5118916;27;20050;-95
2023/01/11 07:19:12;;;;;;;13.98;9.45;;;;;;;-0.73;100.00;99332.00;5119358;28;20039;-93
2023/01/11 07:21:38;;;;;;;16.10;10.57;;;;;;;-0.68;100.00;99340.84;5119289;28;20092;-94
2023/01/11 07:24:05;;;;;;;16.83;10.07;;;;;;;-0.71;100.00;99322.50;5122247;27;20134;-94
2023/01/11 07:26:32;;;;;;;14.77;9.40;;;;;;;-0.54;100.00;99342.94;5119153;28;20388;-92
2023/01/11 07:28:58;;;;;;;15.18;9.55;;;;;;;-0.33;100.00;99353.94;5124550;27;20061;-94
2023/01/11 07:31:24;;;;;;;15.75;10.23;;;;;;;-0.18;100.00;99376.09;5118732;28;20481;-94
2023/01/11 07:33:50;;;;;;;16.23;9.30;;;;;;;-0.11;100.00;99367.56;5119446;28;20135;-93
2023/01/11 07:36:15;;;;;;;18.27;11.75;;;;;;;-0.05;100.00;99352.03;5126205;27;20133;-95
2023/01/11 07:38:41;;;;;;;15.95;9.15;;;;;;;0.14;100.00;99354.25;5123713;27;20019;-94
2023/01/11 07:43:54;;;;;;;19.95;9.10;;;;;;;0.24;100.00;99333.53;5120438;27;20016;-93
2023/01/11 07:46:20;;;;;;;20.23;9.07;;;;;;;0.45;100.00;99369.78;5118407;28;20044;-95
2023/01/11 07:48:46;;;;;;;15.20;9.13;;;;;;;0.43;100.00;99361.00;5126932;27;20045;-94
2023/01/11 07:51:12;;;;;;;17.75;9.50;;;;;;;0.43;100.00;99351.41;5120534;27;20070;-93
2023/01/11 07:53:38;;;;;;;18.15;9.80;;;;;;;0.64;100.00;99358.88;5125957;27;20583;-94
2023/01/11 07:56:05;;;;;;;21.58;10.15;;;;;;;0.50;100.00;99326.28;5118299;27;20044;-94
2023/01/11 07:58:31;;;;;;;21.80;10.68;;;;;;;0.64;100.00;99326.59;5128445;27;20063;-94
2023/01/11 08:00:59;;;;;;;22.50;10.85;;;;;;;0.88;100.00;99342.81;5130645;27;20044;-92
2023/01/11 08:03:25;;;;;;;21.25;10.68;;;;;;;1.18;99.63;99373.09;5118111;28;20036;-95
2023/01/11 08:05:51;;;;;;;22.15;10.40;;;;;;;1.16;99.06;99343.38;5118500;28;20036;-94
2023/01/11 08:08:17;;;;;;;19.85;11.43;;;;;;;1.27;98.15;99330.50;5118634;27;20036;-94
2023/01/11 08:10:43;;;;;;;23.23;12.98;;;;;;;1.72;97.26;99353.16;5117720;27;20039;-94
2023/01/11 08:16:11;;;;;;;14.00;8.73;;;;;;;1.91;93.34;99352.63;5083580;28;20728;-93
2023/01/11 08:18:37;;;;;;;12.25;7.50;;;;;;;2.12;87.55;99331.09;5094078;28;20048;-94
2023/01/11 08:21:03;;;;;;;11.25;6.13;;;;;;;2.09;87.23;99312.69;5094099;28;20040;-94
2023/01/11 08:23:30;;;;;;;10.45;6.75;;;;;;;1.95;85.36;99338.72;5086262;28;20063;-93
2023/01/11 08:25:56;;;;;;;9.38;5.93;;;;;;;1.94;85.18;99325.56;5092858;28;20196;-92
2023/01/11 08:28:22;;;;;;;10.85;5.68;;;;;;;2.21;83.27;99339.13;5090119;28;20040;-93
2023/01/11 08:30:49;;;;;;;23.05;14.35;;;;;;;2.28;83.52;99331.31;5076282;28;20025;-94
2023/01/11 08:33:16;;;;;;;32.80;19.30;;;;;;;2.78;88.02;99362.69;5093971;28;20070;-92
2023/01/11 08:35:42;;;;;;;21.38;13.13;;;;;;;2.95;86.72;99352.38;5094657;28;20049;-94
2023/01/11 08:38:08;;;;;;;24.05;14.07;;;;;;;3.05;84.22;99344.63;5096300;28;20120;-94
2023/01/11 08:40:34;;;;;;;21.65;10.40;;;;;;;3.07;83.60;99321.91;5095215;28;20033;-94
2023/01/11 08:43:00;;;;;;;14.65;9.38;;;;;;;3.20;82.90;99337.81;5093660;28;20066;-93
2023/01/11 08:45:26;;;;;;;18.35;10.40;;;;;;;3.44;82.42;99343.34;5081421;28;20052;-94
2023/01/11 08:47:53;;;;;;;26.00;14.85;;;;;;;3.70;79.07;99366.41;5087583;28;20071;-93
2023/01/11 08:50:21;;;;;;;21.13;11.80;;;;;;;3.78;78.12;99351.59;5093957;28;20067;-94
2023/01/11 08:52:48;;;;;;;22.77;12.23;;;;;;;3.71;77.50;99334.00;5087930;28;20036;-94
2023/01/11 08:55:14;;;;;;;21.08;11.88;;;;;;;3.90;77.63;99342.91;5083418;28;20036;-94
2023/01/11 08:57:40;;;;;;;26.75;13.32;;;;;;;3.82;76.95;99329.69;5093926;28;20044;-95
2023/01/11 09:00:08;;;;;;;19.85;11.18;;;;;;;3.80;77.66;99326.16;5094941;28;20056;-93
2023/01/11 09:02:34;;;;;;;19.42;11.05;;;;;;;3.88;77.93;99360.44;5101421;28;20041;-96
2023/01/11 09:05:00;;;;;;;18.02;9.73;;;;;;;3.53;78.30;99342.56;5081881;28;20048;-93
2023/01/11 09:07:28;;;;;;;20.90;11.38;;;;;;;3.61;79.65;99350.53;5077300;28;20024;-93
2023/01/11 09:09:54;;;;;;;29.60;16.05;;;;;;;3.67;78.87;99353.22;5074749;28;20060;-93
2023/01/11 09:12:20;;;;;;;24.65;13.48;;;;;;;3.59;78.56;99349.63;5073640;28;20049;-92
2023/01/11 09:14:46;;;;;;;18.55;11.18;;;;;;;3.43;78.06;99336.34;5089439;28;20072;-93
2023/01/11 09:17:12;;;;;;;19.83;11.05;;;;;;;3.25;79.12;99352.78;5093620;28;20056;-95
2023/01/11 09:19:38;;;;;;;21.52;10.85;;;;;;;3.32;80.54;99345.84;5093256;28;20155;-91
2023/01/11 09:22:04;;;;;;;20.13;10.95;;;;;;;3.42;79.99;99341.56;5090479;28;20082;-92
2023/01/11 09:24:32;;;;;;;26.67;12.38;;;;;;;3.73;79.77;99381.31;5084224;28;20040;-92
2023/01/11 09:26:59;;;;;;;20.98;12.80;;;;;;;3.71;80.10;99357.66;5074168;28;20049;-93
2023/01/11 09:29:25;;;;;;;21.13;12.45;;;;;;;3.84;79.16;99358.66;5069924;28;20032;-93
2023/01/11 09:31:51;;;;;;;21.25;12.07;;;;;;;4.14;77.90;99372.94;5071986;28;20449;-91
2023/01/11 09:34:18;;;;;;;22.17;11.63;;;;;;;4.41;77.14;99367.91;5065179;28;20033;-90
2023/01/11 09:36:46;;;;;;;18.65;11.50;;;;;;;4.49;76.37;99339.00;5068567;28;20033;-94
2023/01/11 09:39:14;;;;;;;21.40;12.52;;;;;;;4.64;75.17;99343.44;5074348;28;20044;-94
2023/01/11 09:42:13;;;;;;;21.58;12.00;;;;;;;4.79;74.59;99358.47;5066553;28;20061;-92
2023/01/11 09:44:49;;;;;;;19.83;11.73;;;;;;;4.75;74.49;99331.25;5069792;28;20071;-93
2023/01/11 09:47:25;;;;;;;18.55;11.07;;;;;;;4.83;74.81;99328.63;5076659;28;20033;-92
2023/01/11 09:49:56;;;;;;;17.30;10.45;;;;;;;5.07;75.03;99367.41;5072636;28;20063;-91
2023/01/11 09:52:27;;;;;;;17.10;10.57;;;;;;;4.87;74.01;99351.50;5070236;28;20087;-92
2023/01/11 09:54:55;;;;;;;17.40;10.30;;;;;;;4.73;75.53;99346.16;5061689;28;20059;-93
2023/01/11 09:57:33;;;;;;;15.18;9.05;;;;;;;4.76;74.98;99363.75;5067227;28;20398;-93
2023/01/11 10:00:12;;;;;;;15.13;9.52;;;;;;;4.63;74.98;99346.97;5077155;28;20048;-93
2023/01/11 10:02:53;;;;;;;13.77;9.63;;;;;;;4.77;74.98;99366.38;5077407;28;20037;-93
2023/01/11 10:05:40;;;;;;;19.95;11.43;;;;;;;4.88;76.28;99347.97;5057821;28;20498;-92
2023/01/11 10:08:23;;;;;;;20.13;11.80;;;;;;;4.96;75.76;99346.25;5068817;28;20506;-93
2023/01/11 10:11:02;;;;;;;22.02;12.88;;;;;;;5.15;74.87;99353.38;5072539;28;20121;-92
2023/01/11 10:13:46;;;;;;;23.30;15.32;;;;;;;5.27;74.85;99356.94;5064164;28;20041;-93
2023/01/11 10:16:25;;;;;;;23.38;16.50;;;;;;;5.24;73.89;99354.28;5073496;28;20144;-94
2023/01/11 10:19:04;;;;;;;20.92;13.75;;;;;;;4.97;75.10;99329.59;5075018;28;20048;-93
2023/01/11 10:21:40;;;;;;;22.65;15.82;;;;;;;5.23;75.55;99348.16;5072212;28;20036;-94
2023/01/11 10:24:17;;;;;;;23.17;14.25;;;;;;;5.32;75.57;99321.81;5076058;28;20448;-93
2023/01/11 10:26:44;;;;;;;21.58;14.32;;;;;;;5.62;73.28;99343.00;5075055;28;20040;-93
2023/01/11 10:37:49;;;;;;;22.88;12.65;;;;;;;6.19;72.47;99321.94;5163024;27;20180;-93
2023/01/11 10:43:21;;;;;;;20.05;12.68;;;;;;;6.19;71.42;99309.63;5111945;27;1495359;-93
2023/01/11 10:45:52;;;;;;;17.65;11.75;;;;;;;6.02;71.03;99288.50;5118812;28;20035;-95
2023/01/11 10:48:22;;;;;;;22.95;12.90;;;;;;;6.06;70.11;99294.66;5119492;28;20067;-94
2023/01/11 10:50:57;;;;;;;17.98;11.23;;;;;;;6.24;71.01;99321.03;5119822;28;20055;-93
2023/01/11 10:53:28;;;;;;;18.23;9.82;;;;;;;6.06;70.57;99305.22;5119050;28;20043;-95
2023/01/11 10:56:05;;;;;;;20.27;11.27;;;;;;;6.07;70.85;99323.72;5119287;28;20062;-96
2023/01/11 10:58:48;;;;;;;15.45;10.55;;;;;;;6.17;71.73;99314.00;5119761;28;20046;-95
2023/01/11 11:01:27;;;;;;;19.52;12.05;;;;;;;6.08;71.19;99300.81;5119031;28;20382;-94
2023/01/11 11:04:12;;;;;;;16.17;10.80;;;;;;;6.08;72.25;99279.72;5119963;28;20485;-94
2023/01/11 11:06:45;;;;;;;16.88;12.00;;;;;;;6.25;71.65;99279.69;5119388;28;20142;-93
2023/01/11 11:09:20;;;;;;;16.38;11.10;;;;;;;6.30;70.50;99280.56;5119422;28;20043;-95
2023/01/11 11:11:52;;;;;;;12.88;8.25;;;;;;;6.22;68.76;99262.06;5119342;28;20039;-95
2023/01/11 11:14:27;;;;;;;12.57;8.23;;;;;;;6.35;65.43;99269.13;5119126;28;20106;-94
2023/01/11 11:17:03;;;;;;;13.10;8.23;;;;;;;6.27;64.89;99264.72;5120565;28;20051;-94
2023/01/11 11:19:31;;;;;;;12.35;8.48;;;;;;;6.37;65.78;99291.09;5118942;28;20039;-95
2023/01/11 11:21:58;;;;;;;13.68;8.70;;;;;;;6.47;64.05;99285.81;5119966;28;20104;-95
2023/01/11 11:24:32;;;;;;;12.73;8.45;;;;;;;6.37;64.69;99254.09;5119255;28;20047;-95
2023/01/11 11:27:07;;;;;;;11.90;7.82;;;;;;;6.52;63.55;99255.84;5122294;28;20408;-96
2023/01/11 11:29:40;;;;;;;12.65;8.00;;;;;;;6.84;63.68;99291.00;5119994;28;20588;-93
2023/01/11 11:32:17;;;;;;;10.50;7.68;;;;;;;6.91;61.54;99279.50;5120529;28;20043;-95
2023/01/11 11:34:46;;;;;;;11.95;8.02;;;;;;;6.71;63.03;99261.94;5119988;28;20505;-94
2023/01/11 11:37:20;;;;;;;12.98;9.13;;;;;;;6.83;63.34;99253.09;5119051;28;20044;-94
2023/01/11 11:39:49;;;;;;;11.52;8.38;;;;;;;6.64;63.62;99228.50;5120437;28;20067;-94
2023/01/11 11:42:17;;;;;;;10.15;7.57;;;;;;;6.94;61.00;99239.81;5121427;28;20063;-94
2023/01/11 11:45:01;;;;;;;11.38;7.50;;;;;;;7.13;60.67;99253.81;5122907;28;20050;-94
2023/01/11 11:47:27;;;;;;;9.90;7.45;;;;;;;7.00;61.69;99231.84;5119916;28;20044;-94
2023/01/11 11:50:23;;;;;;;11.38;7.93;;;;;;;7.07;62.57;99256.50;5117134;28;20052;-95
2023/01/11 11:52:52;;;;;;;11.05;7.57;;;;;;;6.90;62.03;99238.09;5112852;28;20054;-94
2023/01/11 11:55:21;;;;;;;12.23;8.53;;;;;;;6.92;61.76;99223.09;5104029;28;20065;-94
2023/01/11 11:57:47;;;;;;;;;;;;;;;7.09;62.82;99250.34;5106417;28;20516;-95
2023/01/11 12:00:24;;;;;;;16.10;11.63;;;;;;;7.03;65.73;99244.19;5104579;28;19919;-95
2023/01/11 12:02:54;;;;;;;20.45;11.63;;;;;;;7.14;68.24;99245.03;5101911;28;20036;-93
2023/01/11 12:05:20;;;;;;;15.98;11.45;;;;;;;7.02;68.80;99206.28;5100368;28;20044;-94
2023/01/11 12:07:50;;;;;;;19.00;11.25;;;;;;;7.25;68.85;99237.88;5115578;27;20047;-94
2023/01/11 12:10:18;;;;;;;15.80;11.15;;;;;;;7.04;68.86;99199.22;5108295;28;20044;-92
2023/01/11 12:12:50;;;;;;;15.27;10.33;;;;;;;7.08;69.41;99211.53;5102714;28;20023;-94
2023/01/11 12:15:22;;;;;;;15.75;10.15;;;;;;;7.17;69.00;99250.28;5101080;28;20035;-92